sensor_id;sensor_type;location;lat;lon;timestamp;temperature;humidity
29777;DHT22;16677;52.224;7.484;2024-01-27T00:00:50;3.90;76.20
29777;DHT22;16677;52.224;7.484;2024-01-27T00:03:17;3.90;1.00
29777;DHT22;16677;52.224;7.484;2024-01-27T00:05:44;3.90;99.90
29777;DHT22;16677;52.224;7.484;2024-01-27T00:08:11;3.80;1.00
29777;DHT22;16677;52.224;7.484;2024-01-27T00:10:38;3.90;99.90
29777;DHT22;16677;52.224;7.484;2024-01-27T00:13:05;3.90;93.60
29777;DHT22;16677;52.224;7.484;2024-01-27T00:15:32;3.90;1.00
29777;DHT22;16677;52.224;7.484;2024-01-27T00:17:59;3.80;1.00
29777;DHT22;16677;52.224;7.484;2024-01-27T00:20:26;3.90;99.90
29777;DHT22;16677;52.224;7.484;2024-01-27T00:22:53;3.90;99.90
29777;DHT22;16677;52.224;7.484;2024-01-27T00:25:20;4.00;99.90
29777;DHT22;16677;52.224;7.484;2024-01-27T00:30:22;3.90;1.00
29777;DHT22;16677;52.224;7.484;2024-01-27T00:32:49;3.80;1.00
29777;DHT22;16677;52.224;7.484;2024-01-27T00:35:16;3.80;1.00
29777;DHT22;16677;52.224;7.484;2024-01-27T00:37:43;3.80;99.90
29777;DHT22;16677;52.224;7.484;2024-01-27T00:40:10;3.80;99.90
29777;DHT22;16677;52.224;7.484;2024-01-27T00:42:37;3.70;1.00
29777;DHT22;16677;52.224;7.484;2024-01-27T00:45:04;3.60;44.10
29777;DHT22;16677;52.224;7.484;2024-01-27T00:47:31;3.60;99.90
29777;DHT22;16677;52.224;7.484;2024-01-27T00:49:58;3.60;1.00
29777;DHT22;16677;52.224;7.484;2024-01-27T00:52:25;3.70;1.00
29777;DHT22;16677;52.224;7.484;2024-01-27T00:54:52;3.70;1.00
29777;DHT22;16677;52.224;7.484;2024-01-27T00:57:19;3.70;1.00
29777;DHT22;16677;52.224;7.484;2024-01-27T00:59:46;3.70;1.00
29777;DHT22;16677;52.224;7.484;2024-01-27T01:02:13;3.90;1.00
29777;DHT22;16677;52.224;7.484;2024-01-27T01:04:40;3.70;99.90
29777;DHT22;16677;52.224;7.484;2024-01-27T01:07:08;3.70;99.90
29777;DHT22;16677;52.224;7.484;2024-01-27T01:09:34;3.70;99.90
29777;DHT22;16677;52.224;7.484;2024-01-27T01:12:01;3.80;1.00
29777;DHT22;16677;52.224;7.484;2024-01-27T01:14:29;3.70;1.00
29777;DHT22;16677;52.224;7.484;2024-01-27T01:16:56;3.80;1.00
29777;DHT22;16677;52.224;7.484;2024-01-27T01:19:23;3.80;1.00
29777;DHT22;16677;52.224;7.484;2024-01-27T01:21:50;3.70;1.00
29777;DHT22;16677;52.224;7.484;2024-01-27T01:24:17;3.70;1.00
29777;DHT22;16677;52.224;7.484;2024-01-27T01:26:44;3.70;1.00
29777;DHT22;16677;52.224;7.484;2024-01-27T01:29:11;3.70;72.10
29777;DHT22;16677;52.224;7.484;2024-01-27T01:31:38;3.70;1.00
29777;DHT22;16677;52.224;7.484;2024-01-27T01:34:04;3.70;1.00
29777;DHT22;16677;52.224;7.484;2024-01-27T01:36:31;3.70;1.00
29777;DHT22;16677;52.224;7.484;2024-01-27T01:38:58;3.70;1.00
29777;DHT22;16677;52.224;7.484;2024-01-27T01:41:25;3.60;1.00
29777;DHT22;16677;52.224;7.484;2024-01-27T01:43:52;3.60;1.00
29777;DHT22;16677;52.224;7.484;2024-01-27T01:46:21;3.60;68.00
29777;DHT22;16677;52.224;7.484;2024-01-27T01:48:47;3.50;99.90
29777;DHT22;16677;52.224;7.484;2024-01-27T01:51:15;3.40;99.90
29777;DHT22;16677;52.224;7.484;2024-01-27T01:53:45;3.50;99.90
29777;DHT22;16677;52.224;7.484;2024-01-27T01:56:14;3.50;57.40
29777;DHT22;16677;52.224;7.484;2024-01-27T01:58:41;3.50;1.00
29777;DHT22;16677;52.224;7.484;2024-01-27T02:01:09;3.50;1.00
29777;DHT22;16677;52.224;7.484;2024-01-27T02:03:36;3.50;1.00
29777;DHT22;16677;52.224;7.484;2024-01-27T02:06:03;3.50;99.90
29777;DHT22;16677;52.224;7.484;2024-01-27T02:08:30;3.60;99.90
29777;DHT22;16677;52.224;7.484;2024-01-27T02:10:57;3.50;1.00
29777;DHT22;16677;52.224;7.484;2024-01-27T02:13:32;3.50;1.00
29777;DHT22;16677;52.224;7.484;2024-01-27T02:16:00;3.70;1.00
29777;DHT22;16677;52.224;7.484;2024-01-27T02:18:28;3.50;1.00
29777;DHT22;16677;52.224;7.484;2024-01-27T02:20:55;3.40;1.00
29777;DHT22;16677;52.224;7.484;2024-01-27T02:23:22;3.40;1.00
29777;DHT22;16677;52.224;7.484;2024-01-27T02:25:49;3.40;99.90
29777;DHT22;16677;52.224;7.484;2024-01-27T02:28:19;3.40;90.50
29777;DHT22;16677;52.224;7.484;2024-01-27T02:30:46;3.40;99.90
29777;DHT22;16677;52.224;7.484;2024-01-27T02:33:17;3.50;1.00
29777;DHT22;16677;52.224;7.484;2024-01-27T02:35:44;3.70;1.00
29777;DHT22;16677;52.224;7.484;2024-01-27T02:38:11;3.50;99.90
29777;DHT22;16677;52.224;7.484;2024-01-27T02:40:38;3.60;99.90
29777;DHT22;16677;52.224;7.484;2024-01-27T02:43:05;3.60;70.20
29777;DHT22;16677;52.224;7.484;2024-01-27T02:45:32;3.40;33.20
29777;DHT22;16677;52.224;7.484;2024-01-27T02:47:59;3.40;1.00
29777;DHT22;16677;52.224;7.484;2024-01-27T02:50:26;3.40;1.00
29777;DHT22;16677;52.224;7.484;2024-01-27T02:52:56;3.40;99.90
29777;DHT22;16677;52.224;7.484;2024-01-27T02:55:24;3.40;1.00
29777;DHT22;16677;52.224;7.484;2024-01-27T02:57:51;3.40;99.90
29777;DHT22;16677;52.224;7.484;2024-01-27T03:00:18;3.30;99.90
29777;DHT22;16677;52.224;7.484;2024-01-27T03:02:45;3.30;99.90
29777;DHT22;16677;52.224;7.484;2024-01-27T03:05:15;3.30;1.00
29777;DHT22;16677;52.224;7.484;2024-01-27T03:07:42;3.30;99.90
29777;DHT22;16677;52.224;7.484;2024-01-27T03:10:09;3.40;48.20
29777;DHT22;16677;52.224;7.484;2024-01-27T03:12:44;3.50;20.70
29777;DHT22;16677;52.224;7.484;2024-01-27T03:15:11;3.50;99.90
29777;DHT22;16677;52.224;7.484;2024-01-27T03:17:39;3.40;1.00
29777;DHT22;16677;52.224;7.484;2024-01-27T03:20:06;3.40;1.00
29777;DHT22;16677;52.224;7.484;2024-01-27T03:22:37;3.50;58.60
29777;DHT22;16677;52.224;7.484;2024-01-27T03:25:06;3.30;1.00
29777;DHT22;16677;52.224;7.484;2024-01-27T03:27:33;3.40;1.00
29777;DHT22;16677;52.224;7.484;2024-01-27T03:30:01;3.30;1.00
29777;DHT22;16677;52.224;7.484;2024-01-27T03:32:31;3.30;1.00
29777;DHT22;16677;52.224;7.484;2024-01-27T03:35:01;3.30;1.00
29777;DHT22;16677;52.224;7.484;2024-01-27T03:37:28;3.30;1.00
29777;DHT22;16677;52.224;7.484;2024-01-27T03:39:58;3.40;99.90
29777;DHT22;16677;52.224;7.484;2024-01-27T03:42:25;3.30;99.90
29777;DHT22;16677;52.224;7.484;2024-01-27T03:44:52;3.40;99.90
29777;DHT22;16677;52.224;7.484;2024-01-27T03:47:19;3.40;44.70
29777;DHT22;16677;52.224;7.484;2024-01-27T03:49:46;3.40;63.90
29777;DHT22;16677;52.224;7.484;2024-01-27T03:52:13;3.30;1.00
29777;DHT22;16677;52.224;7.484;2024-01-27T03:54:40;3.40;99.90
29777;DHT22;16677;52.224;7.484;2024-01-27T03:57:07;3.40;1.00
29777;DHT22;16677;52.224;7.484;2024-01-27T03:59:34;3.50;1.00
29777;DHT22;16677;52.224;7.484;2024-01-27T04:02:00;3.40;99.90
29777;DHT22;16677;52.224;7.484;2024-01-27T04:04:27;3.30;99.90
29777;DHT22;16677;52.224;7.484;2024-01-27T04:06:54;3.40;1.00
29777;DHT22;16677;52.224;7.484;2024-01-27T04:09:21;3.40;1.00
29777;DHT22;16677;52.224;7.484;2024-01-27T04:11:48;3.30;99.90
29777;DHT22;16677;52.224;7.484;2024-01-27T04:14:15;3.30;1.00
29777;DHT22;16677;52.224;7.484;2024-01-27T04:16:42;3.40;1.00
29777;DHT22;16677;52.224;7.484;2024-01-27T04:19:09;3.40;1.00
29777;DHT22;16677;52.224;7.484;2024-01-27T04:21:36;3.30;1.00
29777;DHT22;16677;52.224;7.484;2024-01-27T04:24:03;3.30;1.00
29777;DHT22;16677;52.224;7.484;2024-01-27T04:26:30;3.30;1.00
29777;DHT22;16677;52.224;7.484;2024-01-27T04:28:57;3.30;99.90
29777;DHT22;16677;52.224;7.484;2024-01-27T04:31:23;3.40;1.00
29777;DHT22;16677;52.224;7.484;2024-01-27T04:33:50;3.30;1.00
29777;DHT22;16677;52.224;7.484;2024-01-27T04:36:29;3.40;1.00
29777;DHT22;16677;52.224;7.484;2024-01-27T04:38:56;3.40;1.00
29777;DHT22;16677;52.224;7.484;2024-01-27T04:41:23;3.40;99.90
29777;DHT22;16677;52.224;7.484;2024-01-27T04:43:50;3.30;99.90
29777;DHT22;16677;52.224;7.484;2024-01-27T04:46:17;3.30;99.90
29777;DHT22;16677;52.224;7.484;2024-01-27T04:48:44;3.30;1.00
29777;DHT22;16677;52.224;7.484;2024-01-27T04:51:11;3.20;1.00
29777;DHT22;16677;52.224;7.484;2024-01-27T04:53:38;3.20;1.00
29777;DHT22;16677;52.224;7.484;2024-01-27T04:56:05;3.20;72.90
29777;DHT22;16677;52.224;7.484;2024-01-27T04:58:36;3.20;1.00
29777;DHT22;16677;52.224;7.484;2024-01-27T05:01:03;3.10;1.00
29777;DHT22;16677;52.224;7.484;2024-01-27T05:03:30;3.10;1.00
29777;DHT22;16677;52.224;7.484;2024-01-27T05:05:57;3.10;99.90
29777;DHT22;16677;52.224;7.484;2024-01-27T05:08:24;3.10;1.00
29777;DHT22;16677;52.224;7.484;2024-01-27T05:10:51;3.10;99.90
29777;DHT22;16677;52.224;7.484;2024-01-27T05:13:20;3.10;1.00
29777;DHT22;16677;52.224;7.484;2024-01-27T05:15:47;3.00;1.00
29777;DHT22;16677;52.224;7.484;2024-01-27T05:18:14;3.00;99.90
29777;DHT22;16677;52.224;7.484;2024-01-27T05:20:41;3.00;99.90
29777;DHT22;16677;52.224;7.484;2024-01-27T05:23:08;3.00;1.00
29777;DHT22;16677;52.224;7.484;2024-01-27T05:25:35;3.10;36.20
29777;DHT22;16677;52.224;7.484;2024-01-27T05:28:02;3.10;1.00
29777;DHT22;16677;52.224;7.484;2024-01-27T05:30:29;3.10;1.00
29777;DHT22;16677;52.224;7.484;2024-01-27T05:32:56;3.10;1.00
29777;DHT22;16677;52.224;7.484;2024-01-27T05:35:23;3.10;99.90
29777;DHT22;16677;52.224;7.484;2024-01-27T05:37:50;3.10;7.10
29777;DHT22;16677;52.224;7.484;2024-01-27T05:40:18;3.10;28.20
29777;DHT22;16677;52.224;7.484;2024-01-27T05:42:45;3.10;23.90
29777;DHT22;16677;52.224;7.484;2024-01-27T05:45:12;3.10;99.90
29777;DHT22;16677;52.224;7.484;2024-01-27T05:47:39;3.10;99.90
29777;DHT22;16677;52.224;7.484;2024-01-27T05:50:06;3.10;99.90
29777;DHT22;16677;52.224;7.484;2024-01-27T05:52:34;3.10;99.90
29777;DHT22;16677;52.224;7.484;2024-01-27T05:55:02;3.10;99.90
29777;DHT22;16677;52.224;7.484;2024-01-27T05:57:29;3.00;99.90
29777;DHT22;16677;52.224;7.484;2024-01-27T05:59:56;3.00;99.90
29777;DHT22;16677;52.224;7.484;2024-01-27T06:02:23;3.00;99.90
29777;DHT22;16677;52.224;7.484;2024-01-27T06:04:50;3.00;99.90
29777;DHT22;16677;52.224;7.484;2024-01-27T06:07:17;3.00;1.00
29777;DHT22;16677;52.224;7.484;2024-01-27T06:09:44;3.00;99.90
29777;DHT22;16677;52.224;7.484;2024-01-27T06:12:11;3.00;1.00
29777;DHT22;16677;52.224;7.484;2024-01-27T06:14:38;3.00;99.90
29777;DHT22;16677;52.224;7.484;2024-01-27T06:17:05;3.00;1.00
29777;DHT22;16677;52.224;7.484;2024-01-27T06:19:32;2.90;99.90
29777;DHT22;16677;52.224;7.484;2024-01-27T06:21:59;2.90;1.00
29777;DHT22;16677;52.224;7.484;2024-01-27T06:24:29;3.00;1.00
29777;DHT22;16677;52.224;7.484;2024-01-27T06:26:55;2.90;1.00
29777;DHT22;16677;52.224;7.484;2024-01-27T06:29:22;2.90;1.00
29777;DHT22;16677;52.224;7.484;2024-01-27T06:31:49;3.00;1.00
29777;DHT22;16677;52.224;7.484;2024-01-27T06:34:17;3.00;99.90
29777;DHT22;16677;52.224;7.484;2024-01-27T06:36:44;2.90;99.90
29777;DHT22;16677;52.224;7.484;2024-01-27T06:39:11;2.80;99.90
29777;DHT22;16677;52.224;7.484;2024-01-27T06:41:38;2.90;1.00
29777;DHT22;16677;52.224;7.484;2024-01-27T06:44:05;2.90;1.00
29777;DHT22;16677;52.224;7.484;2024-01-27T06:46:32;3.00;1.00
29777;DHT22;16677;52.224;7.484;2024-01-27T06:51:25;2.90;99.90
29777;DHT22;16677;52.224;7.484;2024-01-27T06:53:58;2.90;99.90
29777;DHT22;16677;52.224;7.484;2024-01-27T06:56:25;2.80;99.90
29777;DHT22;16677;52.224;7.484;2024-01-27T06:58:52;2.70;1.00
29777;DHT22;16677;52.224;7.484;2024-01-27T07:01:19;2.60;1.00
29777;DHT22;16677;52.224;7.484;2024-01-27T07:03:46;2.60;1.00
29777;DHT22;16677;52.224;7.484;2024-01-27T07:06:13;2.60;1.00
29777;DHT22;16677;52.224;7.484;2024-01-27T07:08:40;2.50;1.00
29777;DHT22;16677;52.224;7.484;2024-01-27T07:11:07;2.50;1.00
29777;DHT22;16677;52.224;7.484;2024-01-27T07:13:34;2.50;1.00
29777;DHT22;16677;52.224;7.484;2024-01-27T07:16:01;2.50;1.00
29777;DHT22;16677;52.224;7.484;2024-01-27T07:18:27;2.30;1.00
29777;DHT22;16677;52.224;7.484;2024-01-27T07:20:55;2.20;1.00
29777;DHT22;16677;52.224;7.484;2024-01-27T07:23:26;2.10;99.90
29777;DHT22;16677;52.224;7.484;2024-01-27T07:25:52;2.10;99.90
29777;DHT22;16677;52.224;7.484;2024-01-27T07:30:47;2.00;1.00
29777;DHT22;16677;52.224;7.484;2024-01-27T07:35:42;2.00;1.00
29777;DHT22;16677;52.224;7.484;2024-01-27T07:38:09;2.10;1.00
29777;DHT22;16677;52.224;7.484;2024-01-27T07:40:36;2.20;1.00
29777;DHT22;16677;52.224;7.484;2024-01-27T07:43:06;2.10;1.00
29777;DHT22;16677;52.224;7.484;2024-01-27T07:45:33;2.10;1.00
29777;DHT22;16677;52.224;7.484;2024-01-27T07:48:00;2.10;1.00
29777;DHT22;16677;52.224;7.484;2024-01-27T07:50:27;2.10;1.00
29777;DHT22;16677;52.224;7.484;2024-01-27T07:52:54;2.10;1.00
29777;DHT22;16677;52.224;7.484;2024-01-27T07:55:21;2.10;61.50
29777;DHT22;16677;52.224;7.484;2024-01-27T07:57:48;2.10;63.00
29777;DHT22;16677;52.224;7.484;2024-01-27T08:00:15;2.20;99.90
29777;DHT22;16677;52.224;7.484;2024-01-27T08:02:43;2.30;99.90
29777;DHT22;16677;52.224;7.484;2024-01-27T08:05:09;2.40;99.90
29777;DHT22;16677;52.224;7.484;2024-01-27T08:07:36;2.40;99.90
29777;DHT22;16677;52.224;7.484;2024-01-27T08:10:04;2.50;99.90
29777;DHT22;16677;52.224;7.484;2024-01-27T08:12:31;2.50;99.90
29777;DHT22;16677;52.224;7.484;2024-01-27T08:14:58;2.60;99.90
29777;DHT22;16677;52.224;7.484;2024-01-27T08:17:25;2.60;99.90
29777;DHT22;16677;52.224;7.484;2024-01-27T08:19:52;2.70;99.90
29777;DHT22;16677;52.224;7.484;2024-01-27T08:22:19;2.80;1.00
29777;DHT22;16677;52.224;7.484;2024-01-27T08:24:45;2.90;1.00
29777;DHT22;16677;52.224;7.484;2024-01-27T08:27:12;3.00;1.00
29777;DHT22;16677;52.224;7.484;2024-01-27T08:29:39;3.10;99.90
29777;DHT22;16677;52.224;7.484;2024-01-27T08:32:06;3.20;95.10
29777;DHT22;16677;52.224;7.484;2024-01-27T08:34:33;3.30;1.00
29777;DHT22;16677;52.224;7.484;2024-01-27T08:37:00;3.30;99.90
29777;DHT22;16677;52.224;7.484;2024-01-27T08:39:28;3.20;1.00
29777;DHT22;16677;52.224;7.484;2024-01-27T08:41:55;3.30;99.90
29777;DHT22;16677;52.224;7.484;2024-01-27T08:44:22;3.50;99.90
29777;DHT22;16677;52.224;7.484;2024-01-27T08:46:49;3.50;1.00
29777;DHT22;16677;52.224;7.484;2024-01-27T08:49:16;3.60;1.00
29777;DHT22;16677;52.224;7.484;2024-01-27T08:51:43;3.60;99.90
29777;DHT22;16677;52.224;7.484;2024-01-27T08:54:10;3.70;1.00
29777;DHT22;16677;52.224;7.484;2024-01-27T08:56:40;3.80;1.00
29777;DHT22;16677;52.224;7.484;2024-01-27T08:59:07;3.80;99.90
29777;DHT22;16677;52.224;7.484;2024-01-27T09:01:34;3.80;99.90
29777;DHT22;16677;52.224;7.484;2024-01-27T09:04:01;3.90;99.90
29777;DHT22;16677;52.224;7.484;2024-01-27T09:06:28;3.90;1.00
29777;DHT22;16677;52.224;7.484;2024-01-27T09:08:57;4.00;1.00
29777;DHT22;16677;52.224;7.484;2024-01-27T09:11:24;4.10;1.00
29777;DHT22;16677;52.224;7.484;2024-01-27T09:13:53;4.10;99.90
29777;DHT22;16677;52.224;7.484;2024-01-27T09:16:21;4.10;99.90
29777;DHT22;16677;52.224;7.484;2024-01-27T09:18:48;4.10;99.90
29777;DHT22;16677;52.224;7.484;2024-01-27T09:21:17;4.20;99.90
29777;DHT22;16677;52.224;7.484;2024-01-27T09:23:49;4.40;99.90
29777;DHT22;16677;52.224;7.484;2024-01-27T09:26:16;4.50;1.00
29777;DHT22;16677;52.224;7.484;2024-01-27T09:28:45;4.60;1.00
29777;DHT22;16677;52.224;7.484;2024-01-27T09:31:20;4.60;1.00
29777;DHT22;16677;52.224;7.484;2024-01-27T09:33:51;4.70;99.90
29777;DHT22;16677;52.224;7.484;2024-01-27T09:36:22;4.70;99.90
29777;DHT22;16677;52.224;7.484;2024-01-27T09:38:49;4.80;99.90
29777;DHT22;16677;52.224;7.484;2024-01-27T09:41:16;4.90;99.90
29777;DHT22;16677;52.224;7.484;2024-01-27T09:43:43;4.90;13.40
29777;DHT22;16677;52.224;7.484;2024-01-27T09:46:16;4.90;1.00
29777;DHT22;16677;52.224;7.484;2024-01-27T09:48:43;5.00;1.00
29777;DHT22;16677;52.224;7.484;2024-01-27T09:51:10;5.10;1.00
29777;DHT22;16677;52.224;7.484;2024-01-27T09:53:37;5.10;99.90
29777;DHT22;16677;52.224;7.484;2024-01-27T09:56:04;5.20;99.90
29777;DHT22;16677;52.224;7.484;2024-01-27T09:58:33;5.20;99.90
29777;DHT22;16677;52.224;7.484;2024-01-27T10:01:00;5.20;99.90
29777;DHT22;16677;52.224;7.484;2024-01-27T10:03:28;5.30;99.90
29777;DHT22;16677;52.224;7.484;2024-01-27T10:05:55;5.40;1.00
29777;DHT22;16677;52.224;7.484;2024-01-27T10:08:23;5.40;99.90
29777;DHT22;16677;52.224;7.484;2024-01-27T10:10:56;5.40;1.00
29777;DHT22;16677;52.224;7.484;2024-01-27T10:13:23;5.50;1.00
29777;DHT22;16677;52.224;7.484;2024-01-27T10:16:02;5.60;1.00
29777;DHT22;16677;52.224;7.484;2024-01-27T10:18:30;5.70;1.00
29777;DHT22;16677;52.224;7.484;2024-01-27T10:20:57;5.80;99.90
29777;DHT22;16677;52.224;7.484;2024-01-27T10:23:24;5.70;99.90
29777;DHT22;16677;52.224;7.484;2024-01-27T10:25:52;5.70;99.90
29777;DHT22;16677;52.224;7.484;2024-01-27T10:28:22;5.90;99.90
29777;DHT22;16677;52.224;7.484;2024-01-27T10:30:50;6.00;99.90
29777;DHT22;16677;52.224;7.484;2024-01-27T10:33:17;6.00;1.00
29777;DHT22;16677;52.224;7.484;2024-01-27T10:35:44;6.20;4.90
29777;DHT22;16677;52.224;7.484;2024-01-27T10:38:11;6.20;1.00
29777;DHT22;16677;52.224;7.484;2024-01-27T10:40:38;6.10;1.00
29777;DHT22;16677;52.224;7.484;2024-01-27T10:43:05;6.20;1.00
29777;DHT22;16677;52.224;7.484;2024-01-27T10:45:39;6.30;1.00
29777;DHT22;16677;52.224;7.484;2024-01-27T10:48:07;6.30;1.00
29777;DHT22;16677;52.224;7.484;2024-01-27T10:50:36;6.30;1.00
29777;DHT22;16677;52.224;7.484;2024-01-27T10:53:09;6.40;1.00
29777;DHT22;16677;52.224;7.484;2024-01-27T10:55:37;6.40;1.00
29777;DHT22;16677;52.224;7.484;2024-01-27T10:58:04;6.40;1.00
29777;DHT22;16677;52.224;7.484;2024-01-27T11:00:31;6.60;99.90
29777;DHT22;16677;52.224;7.484;2024-01-27T11:02:59;6.60;99.90
29777;DHT22;16677;52.224;7.484;2024-01-27T11:05:26;6.60;99.90
29777;DHT22;16677;52.224;7.484;2024-01-27T11:07:54;6.60;1.00
29777;DHT22;16677;52.224;7.484;2024-01-27T11:10:22;6.70;99.90
29777;DHT22;16677;52.224;7.484;2024-01-27T11:12:49;6.60;99.90
29777;DHT22;16677;52.224;7.484;2024-01-27T11:15:17;6.70;1.00
29777;DHT22;16677;52.224;7.484;2024-01-27T11:17:44;6.70;1.00
29777;DHT22;16677;52.224;7.484;2024-01-27T11:20:13;6.90;56.30
29777;DHT22;16677;52.224;7.484;2024-01-27T11:22:43;6.90;1.00
29777;DHT22;16677;52.224;7.484;2024-01-27T11:25:14;7.00;1.00
29777;DHT22;16677;52.224;7.484;2024-01-27T11:27:41;6.80;1.00
29777;DHT22;16677;52.224;7.484;2024-01-27T11:30:29;6.90;1.00
29777;DHT22;16677;52.224;7.484;2024-01-27T11:32:57;6.90;1.00
29777;DHT22;16677;52.224;7.484;2024-01-27T11:35:24;6.90;99.90
29777;DHT22;16677;52.224;7.484;2024-01-27T11:37:51;6.90;1.00
29777;DHT22;16677;52.224;7.484;2024-01-27T11:40:18;7.00;1.00
29777;DHT22;16677;52.224;7.484;2024-01-27T11:42:55;7.00;1.00
29777;DHT22;16677;52.224;7.484;2024-01-27T11:45:22;6.90;1.00
29777;DHT22;16677;52.224;7.484;2024-01-27T11:47:49;6.90;1.00
29777;DHT22;16677;52.224;7.484;2024-01-27T11:50:17;7.00;1.00
29777;DHT22;16677;52.224;7.484;2024-01-27T11:52:44;7.10;99.90
29777;DHT22;16677;52.224;7.484;2024-01-27T11:55:11;7.20;99.90
29777;DHT22;16677;52.224;7.484;2024-01-27T11:57:37;7.20;99.90
29777;DHT22;16677;52.224;7.484;2024-01-27T12:00:04;7.30;99.90
29777;DHT22;16677;52.224;7.484;2024-01-27T12:02:32;7.20;99.90
29777;DHT22;16677;52.224;7.484;2024-01-27T12:04:59;7.10;99.90
29777;DHT22;16677;52.224;7.484;2024-01-27T12:07:26;7.30;99.90
29777;DHT22;16677;52.224;7.484;2024-01-27T12:09:53;7.40;99.90
29777;DHT22;16677;52.224;7.484;2024-01-27T12:12:20;7.40;1.00
29777;DHT22;16677;52.224;7.484;2024-01-27T12:14:47;7.40;99.90
29777;DHT22;16677;52.224;7.484;2024-01-27T12:17:15;7.30;99.90
29777;DHT22;16677;52.224;7.484;2024-01-27T12:19:45;7.50;99.20
29777;DHT22;16677;52.224;7.484;2024-01-27T12:22:25;7.50;1.00
29777;DHT22;16677;52.224;7.484;2024-01-27T12:25:09;7.40;99.90
29777;DHT22;16677;52.224;7.484;2024-01-27T12:27:36;7.40;99.90
29777;DHT22;16677;52.224;7.484;2024-01-27T12:30:04;7.40;99.90
29777;DHT22;16677;52.224;7.484;2024-01-27T12:32:32;7.40;99.90
29777;DHT22;16677;52.224;7.484;2024-01-27T12:34:59;7.60;99.90
29777;DHT22;16677;52.224;7.484;2024-01-27T12:37:30;7.70;99.90
29777;DHT22;16677;52.224;7.484;2024-01-27T12:39:57;7.60;99.90
29777;DHT22;16677;52.224;7.484;2024-01-27T12:42:24;7.80;99.90
29777;DHT22;16677;52.224;7.484;2024-01-27T12:44:51;7.60;1.00
29777;DHT22;16677;52.224;7.484;2024-01-27T12:47:18;7.70;1.00
29777;DHT22;16677;52.224;7.484;2024-01-27T12:49:46;7.80;1.00
29777;DHT22;16677;52.224;7.484;2024-01-27T12:52:13;7.70;1.00
29777;DHT22;16677;52.224;7.484;2024-01-27T12:54:41;7.70;99.90
29777;DHT22;16677;52.224;7.484;2024-01-27T12:57:08;7.80;1.00
29777;DHT22;16677;52.224;7.484;2024-01-27T12:59:35;7.50;1.00
29777;DHT22;16677;52.224;7.484;2024-01-27T13:02:02;7.50;1.00
29777;DHT22;16677;52.224;7.484;2024-01-27T13:04:29;7.70;1.00
29777;DHT22;16677;52.224;7.484;2024-01-27T13:06:56;7.70;1.00
29777;DHT22;16677;52.224;7.484;2024-01-27T13:09:23;7.60;1.00
29777;DHT22;16677;52.224;7.484;2024-01-27T13:11:50;7.70;1.00
29777;DHT22;16677;52.224;7.484;2024-01-27T13:14:17;7.70;1.00
29777;DHT22;16677;52.224;7.484;2024-01-27T13:16:46;7.70;1.00
29777;DHT22;16677;52.224;7.484;2024-01-27T13:19:13;7.70;1.00
29777;DHT22;16677;52.224;7.484;2024-01-27T13:21:40;7.70;1.00
29777;DHT22;16677;52.224;7.484;2024-01-27T13:24:07;7.70;1.00
29777;DHT22;16677;52.224;7.484;2024-01-27T13:26:35;7.70;1.00
29777;DHT22;16677;52.224;7.484;2024-01-27T13:29:05;7.60;1.00
29777;DHT22;16677;52.224;7.484;2024-01-27T13:31:33;7.60;1.00
29777;DHT22;16677;52.224;7.484;2024-01-27T13:34:00;7.70;1.00
29777;DHT22;16677;52.224;7.484;2024-01-27T13:36:28;7.80;1.00
29777;DHT22;16677;52.224;7.484;2024-01-27T13:38:55;7.80;1.00
29777;DHT22;16677;52.224;7.484;2024-01-27T13:41:22;7.90;1.00
29777;DHT22;16677;52.224;7.484;2024-01-27T13:43:48;7.70;1.00
29777;DHT22;16677;52.224;7.484;2024-01-27T13:46:15;7.60;1.00
29777;DHT22;16677;52.224;7.484;2024-01-27T13:48:42;7.60;1.00
29777;DHT22;16677;52.224;7.484;2024-01-27T13:51:10;7.60;1.00
29777;DHT22;16677;52.224;7.484;2024-01-27T13:53:37;7.60;1.00
29777;DHT22;16677;52.224;7.484;2024-01-27T13:56:12;7.70;1.00
29777;DHT22;16677;52.224;7.484;2024-01-27T13:58:39;7.70;1.00
29777;DHT22;16677;52.224;7.484;2024-01-27T14:01:06;7.50;1.00
29777;DHT22;16677;52.224;7.484;2024-01-27T14:03:32;7.70;1.00
29777;DHT22;16677;52.224;7.484;2024-01-27T14:06:00;7.60;1.00
29777;DHT22;16677;52.224;7.484;2024-01-27T14:08:27;7.60;1.00
29777;DHT22;16677;52.224;7.484;2024-01-27T14:10:54;7.70;1.00
29777;DHT22;16677;52.224;7.484;2024-01-27T14:13:23;7.70;1.00
29777;DHT22;16677;52.224;7.484;2024-01-27T14:15:50;7.60;1.00
29777;DHT22;16677;52.224;7.484;2024-01-27T14:18:17;7.70;1.00
29777;DHT22;16677;52.224;7.484;2024-01-27T14:20:48;7.70;1.00
29777;DHT22;16677;52.224;7.484;2024-01-27T14:23:15;7.60;1.00
29777;DHT22;16677;52.224;7.484;2024-01-27T14:25:42;7.60;1.00
29777;DHT22;16677;52.224;7.484;2024-01-27T14:28:12;7.60;1.00
29777;DHT22;16677;52.224;7.484;2024-01-27T14:30:40;7.60;1.00
29777;DHT22;16677;52.224;7.484;2024-01-27T14:33:11;7.70;1.00
29777;DHT22;16677;52.224;7.484;2024-01-27T14:35:38;7.60;1.00
29777;DHT22;16677;52.224;7.484;2024-01-27T14:38:06;7.60;1.00
29777;DHT22;16677;52.224;7.484;2024-01-27T14:40:35;7.50;1.00
29777;DHT22;16677;52.224;7.484;2024-01-27T14:43:03;7.60;1.00
29777;DHT22;16677;52.224;7.484;2024-01-27T14:45:35;7.50;1.00
29777;DHT22;16677;52.224;7.484;2024-01-27T14:48:02;7.40;1.00
29777;DHT22;16677;52.224;7.484;2024-01-27T14:50:30;7.40;1.00
29777;DHT22;16677;52.224;7.484;2024-01-27T14:52:57;7.40;1.00
29777;DHT22;16677;52.224;7.484;2024-01-27T14:55:25;7.30;1.00
29777;DHT22;16677;52.224;7.484;2024-01-27T14:57:53;7.30;1.00
29777;DHT22;16677;52.224;7.484;2024-01-27T15:00:20;7.20;1.00
29777;DHT22;16677;52.224;7.484;2024-01-27T15:02:47;7.20;1.00
29777;DHT22;16677;52.224;7.484;2024-01-27T15:05:14;7.20;1.00
29777;DHT22;16677;52.224;7.484;2024-01-27T15:07:41;7.20;1.00
29777;DHT22;16677;52.224;7.484;2024-01-27T15:10:08;7.00;1.00
29777;DHT22;16677;52.224;7.484;2024-01-27T15:12:36;6.90;1.00
29777;DHT22;16677;52.224;7.484;2024-01-27T15:15:03;6.90;1.00
29777;DHT22;16677;52.224;7.484;2024-01-27T15:17:30;6.80;1.00
29777;DHT22;16677;52.224;7.484;2024-01-27T15:19:57;6.70;1.00
29777;DHT22;16677;52.224;7.484;2024-01-27T15:22:24;6.60;1.00
29777;DHT22;16677;52.224;7.484;2024-01-27T15:24:51;6.60;1.00
29777;DHT22;16677;52.224;7.484;2024-01-27T15:27:19;6.60;1.00
29777;DHT22;16677;52.224;7.484;2024-01-27T15:29:46;6.60;1.00
29777;DHT22;16677;52.224;7.484;2024-01-27T15:32:13;6.50;1.00
29777;DHT22;16677;52.224;7.484;2024-01-27T15:34:44;6.40;1.00
29777;DHT22;16677;52.224;7.484;2024-01-27T15:37:11;6.40;1.00
29777;DHT22;16677;52.224;7.484;2024-01-27T15:39:38;6.30;1.00
29777;DHT22;16677;52.224;7.484;2024-01-27T15:42:05;6.30;1.00
29777;DHT22;16677;52.224;7.484;2024-01-27T15:44:32;6.10;1.00
29777;DHT22;16677;52.224;7.484;2024-01-27T15:46:59;6.00;6.80
29777;DHT22;16677;52.224;7.484;2024-01-27T15:49:28;6.00;10.60
29777;DHT22;16677;52.224;7.484;2024-01-27T15:51:55;6.00;10.70
29777;DHT22;16677;52.224;7.484;2024-01-27T15:54:22;5.80;13.20
29777;DHT22;16677;52.224;7.484;2024-01-27T15:56:49;5.70;17.90
29777;DHT22;16677;52.224;7.484;2024-01-27T15:59:16;5.70;22.50
29777;DHT22;16677;52.224;7.484;2024-01-27T16:01:43;5.50;25.60
29777;DHT22;16677;52.224;7.484;2024-01-27T16:04:10;5.50;31.10
29777;DHT22;16677;52.224;7.484;2024-01-27T16:06:38;5.50;40.80